Time;durP1;ratioP1;P1;durP2;ratioP2;P2;SDS_P1;SDS_P2;PMS_P1;PMS_P2;Temp;Humidity;BMP_temperature;BMP_pressure;BME280_temperature;BME280_humidity;BME280_pressure;Samples;Min_cycle;Max_cycle;Signal;HPM_P1;HPM_P2
2024/03/21 00:02:23;;;;;;;3.28;0.73;;;;;;;10.15;52.96;93104.56;2071270;69;20611;-83
2024/03/21 00:04:49;;;;;;;0.90;0.80;;;;;;;10.07;53.36;93107.56;2071447;69;20148;-79
2024/03/21 00:07:15;;;;;;;3.00;0.80;;;;;;;10.09;51.71;93107.72;2071502;69;20298;-81
2024/03/21 00:09:40;;;;;;;1.50;0.88;;;;;;;10.08;52.15;93103.44;2071762;69;20160;-84
2024/03/21 00:12:07;;;;;;;1.73;0.93;;;;;;;10.22;51.63;93119.78;2071553;69;20140;-81
2024/03/21 00:14:34;;;;;;;1.02;0.80;;;;;;;10.20;52.50;93126.03;2072254;69;20183;-84
2024/03/21 00:16:59;;;;;;;1.63;1.20;;;;;;;9.95;52.35;93126.44;2068137;69;20145;-80
2024/03/21 00:19:25;;;;;;;3.15;1.10;;;;;;;9.54;53.57;93128.47;2071921;69;20116;-79
2024/03/21 00:21:51;;;;;;;2.50;1.10;;;;;;;9.88;52.91;93133.69;2072513;69;20611;-81
2024/03/21 00:24:17;;;;;;;1.23;0.80;;;;;;;9.68;52.91;93129.47;2071916;69;20151;-81
2024/03/21 00:26:44;;;;;;;1.83;1.00;;;;;;;9.66;52.43;93123.69;2068850;69;20175;-81
2024/03/21 00:29:10;;;;;;;1.00;0.90;;;;;;;9.67;52.69;93133.63;2072039;69;20145;-80
2024/03/21 00:31:36;;;;;;;2.35;0.80;;;;;;;9.44;53.05;93128.47;2071913;69;20541;-80
2024/03/21 00:34:02;;;;;;;1.30;0.80;;;;;;;9.79;52.53;93126.00;2072015;69;20161;-81
2024/03/21 00:36:29;;;;;;;1.35;0.90;;;;;;;9.99;53.04;93140.78;2071848;69;20535;-81
2024/03/21 00:38:54;;;;;;;1.33;0.95;;;;;;;10.00;53.73;93133.06;2068361;69;20531;-77
2024/03/21 00:41:20;;;;;;;3.97;0.80;;;;;;;9.96;53.73;93139.16;2071407;69;20148;-80
2024/03/21 00:43:49;;;;;;;2.70;0.77;;;;;;;9.93;53.70;93138.25;2068575;69;20169;-80
2024/03/21 00:46:15;;;;;;;2.95;0.82;;;;;;;9.94;53.50;93133.38;2071896;69;20198;-80
2024/03/21 00:48:48;;;;;;;2.97;0.77;;;;;;;9.84;55.26;93141.84;2068391;69;20160;-81
2024/03/21 00:51:13;;;;;;;2.10;1.02;;;;;;;9.56;54.63;93142.66;2072078;69;20156;-80
2024/03/21 00:53:39;;;;;;;2.55;1.02;;;;;;;9.50;54.58;93128.16;2071894;69;20140;-82
2024/03/21 00:56:06;;;;;;;1.08;0.90;;;;;;;9.37;55.15;93129.34;2072042;69;20175;-81
2024/03/21 00:58:32;;;;;;;2.03;1.05;;;;;;;9.55;54.86;93127.84;2071834;69;20128;-81
2024/03/21 01:00:58;;;;;;;0.88;0.70;;;;;;;9.62;52.73;93126.19;2068526;69;20156;-81
2024/03/21 01:03:24;;;;;;;1.23;0.82;;;;;;;9.78;51.75;93127.34;2072516;69;20164;-80
2024/03/21 01:05:56;;;;;;;1.10;0.80;;;;;;;9.91;51.66;93115.63;2068746;69;20179;-80
2024/03/21 01:08:23;;;;;;;2.05;0.88;;;;;;;9.41;52.32;93112.78;2071752;69;20167;-79
2024/03/21 01:10:52;;;;;;;3.00;1.00;;;;;;;9.76;51.57;93124.41;2071923;69;20152;-80
2024/03/21 01:13:19;;;;;;;1.85;0.90;;;;;;;9.55;53.09;93121.50;2071921;69;20145;-80
2024/03/21 01:15:45;;;;;;;1.35;0.70;;;;;;;9.70;53.39;93120.41;2068403;69;20148;-81
2024/03/21 01:18:11;;;;;;;1.90;0.73;;;;;;;9.64;53.41;93121.47;2071496;69;20144;-79
2024/03/21 01:20:41;;;;;;;0.88;0.73;;;;;;;9.71;53.18;93114.19;2071887;69;20141;-80
2024/03/21 01:23:10;;;;;;;2.17;0.90;;;;;;;9.67;52.56;93100.63;2071827;69;20615;-80
2024/03/21 01:25:37;;;;;;;1.85;0.80;;;;;;;9.77;52.15;93114.63;2068479;69;20214;-81
2024/03/21 01:28:03;;;;;;;1.08;0.80;;;;;;;9.80;51.44;93112.69;2071751;69;20152;-80
2024/03/21 01:30:33;;;;;;;0.95;0.73;;;;;;;9.92;50.90;93111.47;2071613;69;20140;-81
2024/03/21 01:32:59;;;;;;;0.70;0.68;;;;;;;9.79;52.03;93109.16;2068312;69;20147;-80
2024/03/21 01:35:26;;;;;;;2.28;0.90;;;;;;;9.91;52.08;93103.66;2071714;69;20198;-80
2024/03/21 01:37:54;;;;;;;1.30;0.70;;;;;;;9.82;51.40;93107.22;2065676;69;20140;-78
2024/03/21 01:40:19;;;;;;;1.23;0.70;;;;;;;9.86;50.83;93108.25;2071651;69;20226;-81
2024/03/21 01:42:46;;;;;;;1.40;0.70;;;;;;;9.79;50.90;93111.22;2071770;69;20611;-79
2024/03/21 01:45:12;;;;;;;2.33;0.68;;;;;;;9.96;50.47;93096.22;2070628;69;20160;-79
2024/03/21 01:47:39;;;;;;;3.38;1.33;;;;;;;10.04;49.90;93096.78;2071764;69;20251;-79
2024/03/21 01:50:06;;;;;;;1.92;0.80;;;;;;;10.13;50.62;93098.81;2071525;69;20505;-79
2024/03/21 01:52:34;;;;;;;1.08;0.73;;;;;;;10.16;51.53;93095.53;2071506;69;20610;-79
2024/03/21 01:55:01;;;;;;;0.95;0.80;;;;;;;10.02;52.10;93100.19;2071423;69;20160;-79
2024/03/21 01:57:27;;;;;;;1.90;0.80;;;;;;;9.73;51.40;93094.66;2071634;69;20136;-80
2024/03/21 02:03:39;;;;;;;2.13;0.75;;;;;;;9.70;51.21;93087.41;2071659;69;20123;-79
2024/03/21 02:06:06;;;;;;;1.05;0.60;;;;;;;10.03;50.56;93084.03;2071694;69;20133;-78
2024/03/21 02:08:32;;;;;;;1.00;0.70;;;;;;;9.97;51.60;93078.75;2068286;69;20195;-78
2024/03/21 02:10:59;;;;;;;1.42;0.60;;;;;;;10.04;50.53;93089.09;2071533;69;20156;-79
2024/03/21 02:13:25;;;;;;;1.33;0.70;;;;;;;10.09;51.14;93082.41;2065448;69;20218;-79
2024/03/21 02:15:51;;;;;;;0.70;0.60;;;;;;;10.10;50.84;93083.88;2068126;69;20502;-80
2024/03/21 02:28:35;;;;;;;0.90;0.60;;;;;;;10.18;51.60;93086.50;2071554;69;20119;-80
2024/03/21 02:31:01;;;;;;;1.98;0.80;;;;;;;10.15;50.40;93080.00;2065109;69;20144;-78
2024/03/21 02:33:27;;;;;;;1.77;0.82;;;;;;;10.08;50.13;93085.78;2071433;69;20160;-79
2024/03/21 02:39:45;;;;;;;0.60;0.60;;;;;;;10.31;49.46;93091.66;2071171;69;20213;-79
2024/03/21 02:42:11;;;;;;;3.13;0.68;;;;;;;10.22;50.82;93078.34;2070963;69;20596;-79
2024/03/21 02:44:36;;;;;;;0.50;0.50;;;;;;;10.40;50.10;93078.84;2067988;69;20155;-79
2024/03/21 02:47:02;;;;;;;0.73;0.60;;;;;;;10.45;49.70;93086.25;2071403;69;20155;-82
2024/03/21 02:49:28;;;;;;;0.98;0.80;;;;;;;10.22;50.20;93089.59;2071480;69;20144;-78
2024/03/21 02:51:54;;;;;;;0.90;0.70;;;;;;;10.41;49.71;93075.44;2068155;69;20587;-77
2024/03/21 02:54:20;;;;;;;0.93;0.70;;;;;;;10.54;49.17;93079.09;2071522;69;20144;-78
2024/03/21 03:00:32;;;;;;;2.05;0.70;;;;;;;10.44;50.42;93076.31;2071622;69;20618;-80
2024/03/21 03:02:59;;;;;;;2.47;0.85;;;;;;;10.38;51.06;93065.38;2067656;69;20136;-78
2024/03/21 03:05:26;;;;;;;2.25;0.60;;;;;;;10.43;50.91;93063.59;2071241;69;20152;-77
2024/03/21 03:07:54;;;;;;;1.42;0.73;;;;;;;10.35;51.44;93063.03;2071337;69;20150;-78
2024/03/21 03:10:20;;;;;;;1.25;0.50;;;;;;;10.29;48.39;93052.09;2071269;69;20566;-79
2024/03/21 03:16:34;;;;;;;0.50;0.50;;;;;;;10.40;47.86;93073.22;2071494;69;20151;-78
2024/03/21 03:19:01;;;;;;;0.70;0.50;;;;;;;10.36;47.55;93062.44;2071297;69;20148;-78
2024/03/21 03:21:27;;;;;;;3.35;0.80;;;;;;;9.99;51.64;93078.91;2068070;69;20151;-79
2024/03/21 03:23:53;;;;;;;0.90;0.70;;;;;;;10.14;52.32;93083.41;2071440;69;20132;-78
2024/03/21 03:26:20;;;;;;;2.20;0.55;;;;;;;10.35;51.87;93071.47;2071379;69;20523;-79
2024/03/21 03:32:47;;;;;;;1.77;0.80;;;;;;;10.28;52.00;93063.97;2071382;69;20539;-79
2024/03/21 03:38:00;;;;;;;0.63;0.63;;;;;;;10.19;51.61;93051.41;2068398;69;20213;-78
2024/03/21 03:40:26;;;;;;;1.85;0.90;;;;;;;10.07;51.72;93056.19;2071334;69;20129;-79
2024/03/21 03:42:53;;;;;;;0.75;0.63;;;;;;;10.28;51.22;93058.34;2071664;69;20235;-80
2024/03/21 03:45:21;;;;;;;1.25;0.60;;;;;;;10.41;50.41;93057.81;2067984;69;20172;-80
2024/03/21 03:47:50;;;;;;;0.52;0.52;;;;;;;10.54;48.76;93067.84;2067748;69;20630;-80
2024/03/21 03:50:18;;;;;;;1.40;0.90;;;;;;;10.47;52.21;93080.00;2071216;69;20599;-79
2024/03/21 03:52:44;;;;;;;4.82;0.90;;;;;;;10.49;51.84;93085.75;2071578;69;20619;-79
2024/03/21 03:55:12;;;;;;;1.95;0.80;;;;;;;10.45;52.67;93086.25;2065770;69;20609;-79
2024/03/21 03:57:38;;;;;;;0.90;0.77;;;;;;;10.37;52.40;93088.50;2068321;69;20322;-78
2024/03/21 04:00:10;;;;;;;4.15;1.15;;;;;;;10.51;52.39;93103.53;2068289;69;20143;-79
2024/03/21 04:06:26;;;;;;;1.05;0.73;;;;;;;10.56;53.39;93107.38;2071932;69;20173;-80
2024/03/21 04:08:56;;;;;;;4.03;0.77;;;;;;;10.53;52.48;93102.94;2071547;69;20148;-78
2024/03/21 04:11:22;;;;;;;2.55;1.00;;;;;;;10.34;51.87;93100.97;2068586;69;20593;-79
2024/03/21 04:13:47;;;;;;;1.95;0.77;;;;;;;9.82;53.63;93091.09;2071818;69;20168;-79
2024/03/21 04:16:16;;;;;;;3.13;1.27;;;;;;;10.08;53.88;93082.97;2071943;69;20237;-79
2024/03/21 04:18:45;;;;;;;1.92;1.30;;;;;;;9.61;55.55;93085.38;2071775;69;20198;-79
2024/03/21 04:21:11;;;;;;;3.85;2.78;;;;;;;9.72;55.48;93067.91;2068531;69;20168;-78
2024/03/21 04:23:38;;;;;;;2.33;1.80;;;;;;;9.83;54.65;93064.44;2071670;69;20124;-78
2024/03/21 04:26:06;;;;;;;4.75;1.73;;;;;;;10.09;54.15;93061.97;2071818;69;20147;-80
2024/03/21 04:28:31;;;;;;;4.07;1.80;;;;;;;10.16;54.54;93058.22;2071601;69;20124;-79
2024/03/21 04:30:57;;;;;;;4.03;1.23;;;;;;;10.36;53.92;93056.09;2071664;69;20170;-79
2024/03/21 04:33:23;;;;;;;3.35;1.38;;;;;;;10.01;54.39;93062.16;2068128;69;20152;-79
2024/03/21 04:35:49;;;;;;;1.83;1.30;;;;;;;9.69;55.55;93074.69;2068326;69;20168;-80
2024/03/21 04:38:15;;;;;;;2.80;1.55;;;;;;;10.05;54.79;93087.75;2071868;69;20632;-79
2024/03/21 04:40:42;;;;;;;1.90;1.30;;;;;;;10.14;54.10;93089.03;2071804;69;20293;-78
2024/03/21 04:43:29;;;;;;;1.50;1.20;;;;;;;10.29;53.50;93105.56;2071653;69;20209;-79
2024/03/21 04:45:57;;;;;;;1.92;1.15;;;;;;;10.23;54.45;93110.03;2071584;69;20172;-78
2024/03/21 04:48:22;;;;;;;2.13;1.35;;;;;;;9.98;54.90;93110.41;2071787;69;20198;-79
2024/03/21 04:50:48;;;;;;;1.67;1.27;;;;;;;9.54;55.41;93101.09;2071879;69;20164;-78
2024/03/21 04:53:14;;;;;;;1.27;1.00;;;;;;;10.07;54.71;93115.28;2068385;69;20172;-78
2024/03/21 04:55:39;;;;;;;2.17;1.20;;;;;;;10.22;54.77;93111.34;2071593;69;20217;-78
2024/03/21 04:58:06;;;;;;;13.30;6.10;;;;;;;10.26;55.61;93106.75;2071574;69;20140;-78
2024/03/21 05:00:32;;;;;;;44.92;27.02;;;;;;;10.26;55.47;93098.31;2071802;69;20145;-78
2024/03/21 05:02:57;;;;;;;23.60;14.52;;;;;;;10.26;55.64;93084.25;2071307;69;20142;-78
2024/03/21 05:05:24;;;;;;;37.75;23.75;;;;;;;10.21;55.82;93073.31;2071882;69;20166;-78
2024/03/21 05:07:51;;;;;;;44.97;28.83;;;;;;;10.03;56.15;93072.78;2071662;69;20179;-79
2024/03/21 05:10:19;;;;;;;20.80;10.80;;;;;;;10.11;56.33;93064.91;2068349;69;20156;-79
2024/03/21 05:12:45;;;;;;;9.77;5.50;;;;;;;10.09;55.46;93068.34;2065425;69;20585;-78
2024/03/21 05:15:12;;;;;;;3.17;2.10;;;;;;;10.09;55.98;93065.53;2071701;69;20143;-78
2024/03/21 05:17:39;;;;;;;1.13;0.80;;;;;;;10.06;55.64;93063.91;2068356;69;20136;-78
2024/03/21 05:20:06;;;;;;;3.13;0.73;;;;;;;10.10;55.54;93071.88;2068363;69;20176;-79
2024/03/21 05:22:32;;;;;;;3.58;1.05;;;;;;;9.87;56.83;93078.78;2071730;69;20125;-78
2024/03/21 05:25:01;;;;;;;3.22;1.40;;;;;;;9.92;56.80;93077.72;2071682;69;20139;-78
2024/03/21 05:27:30;;;;;;;9.82;2.25;;;;;;;9.93;57.04;93073.56;2068206;69;20182;-78
2024/03/21 05:29:57;;;;;;;3.00;2.20;;;;;;;10.03;57.06;93072.78;2071699;69;20153;-78
2024/03/21 05:32:23;;;;;;;4.25;1.90;;;;;;;10.02;56.58;93082.56;2071637;69;20141;-78
2024/03/21 05:34:48;;;;;;;4.30;1.98;;;;;;;9.79;56.44;93083.09;2071686;69;20149;-79
2024/03/21 05:37:14;;;;;;;3.67;2.50;;;;;;;9.89;56.69;93076.09;2071644;69;20179;-79
2024/03/21 05:39:39;;;;;;;7.05;4.70;;;;;;;9.90;56.77;93071.97;2068236;69;20217;-78
2024/03/21 05:42:05;;;;;;;6.10;3.63;;;;;;;10.04;56.71;93091.91;2071844;69;20596;-79
2024/03/21 05:44:31;;;;;;;5.93;3.10;;;;;;;9.99;56.52;93084.53;2068377;69;20235;-80
2024/03/21 05:46:58;;;;;;;5.35;3.10;;;;;;;10.05;56.75;93084.19;2071519;69;20599;-79
2024/03/21 05:49:23;;;;;;;5.00;2.90;;;;;;;10.15;56.92;93096.88;2068245;69;20179;-78
2024/03/21 05:51:50;;;;;;;3.58;2.63;;;;;;;10.17;56.64;93102.66;2071624;69;20133;-78
2024/03/21 05:54:16;;;;;;;3.55;2.53;;;;;;;9.82;58.82;93130.47;2068165;69;20147;-78
2024/03/21 05:56:42;;;;;;;5.47;3.25;;;;;;;9.79;57.98;93130.91;2071661;69;20140;-79
2024/03/21 05:59:07;;;;;;;4.78;2.60;;;;;;;9.42;59.44;93137.47;2068329;69;20129;-78
2024/03/21 06:01:34;;;;;;;8.73;2.35;;;;;;;9.23;60.07;93140.31;2071372;69;20172;-78
2024/03/21 06:04:01;;;;;;;4.65;2.95;;;;;;;9.41;59.49;93147.25;2071693;69;20155;-81
2024/03/21 06:06:28;;;;;;;6.10;3.15;;;;;;;9.59;58.98;93147.81;2071647;69;20156;-79
2024/03/21 06:08:56;;;;;;;4.72;2.10;;;;;;;9.52;58.57;93151.50;2071727;69;20600;-80
2024/03/21 06:11:23;;;;;;;4.20;1.85;;;;;;;9.55;58.21;93146.78;2071829;69;20167;-80
2024/03/21 06:13:50;;;;;;;2.75;1.55;;;;;;;9.83;56.82;93148.06;2071731;69;20519;-79
2024/03/21 06:16:16;;;;;;;2.13;1.63;;;;;;;10.06;57.98;93158.81;2071466;69;20163;-78
2024/03/21 06:18:42;;;;;;;3.00;1.80;;;;;;;10.12;59.32;93159.97;2071615;69;20132;-79
2024/03/21 06:21:07;;;;;;;1.70;1.48;;;;;;;10.23;59.42;93164.22;2071835;69;20151;-80
2024/03/21 06:23:33;;;;;;;5.88;1.50;;;;;;;10.19;60.70;93161.13;2071933;69;20268;-79
2024/03/21 06:29:47;;;;;;;2.67;2.03;;;;;;;9.63;60.83;93172.69;2071682;69;20132;-80
2024/03/21 06:32:13;;;;;;;4.35;2.50;;;;;;;9.84;59.39;93157.97;2071642;69;20148;-80
2024/03/21 06:34:43;;;;;;;4.03;2.60;;;;;;;10.27;58.72;93161.00;2071776;69;20137;-78
2024/03/21 06:37:09;;;;;;;3.83;2.30;;;;;;;10.32;61.28;93159.94;2071812;69;20151;-78
2024/03/21 06:39:34;;;;;;;2.83;1.83;;;;;;;10.36;62.23;93163.75;2071702;69;20141;-77
2024/03/21 06:42:00;;;;;;;2.97;1.77;;;;;;;10.43;62.84;93167.72;2068370;69;20183;-77
2024/03/21 06:44:26;;;;;;;2.00;1.42;;;;;;;10.56;62.28;93164.41;2071725;69;20516;-78
2024/03/21 06:46:52;;;;;;;1.85;1.50;;;;;;;10.58;63.29;93152.53;2071562;69;20303;-81
2024/03/21 06:49:18;;;;;;;1.80;1.35;;;;;;;10.59;63.23;93166.03;2071826;69;20217;-77
2024/03/21 06:51:43;;;;;;;3.58;1.45;;;;;;;10.60;64.39;93178.03;2071657;69;20605;-78
2024/03/21 06:54:09;;;;;;;3.83;2.10;;;;;;;10.12;65.43;93181.72;2071673;69;20155;-81
2024/03/21 06:56:39;;;;;;;7.90;6.43;;;;;;;9.91;65.43;93168.31;2068539;69;20180;-79
2024/03/21 06:59:06;;;;;;;7.80;4.78;;;;;;;10.04;64.51;93150.25;2071651;69;20151;-82
2024/03/21 07:01:32;;;;;;;4.38;2.95;;;;;;;10.59;62.17;93159.66;2068359;69;20160;-81
2024/03/21 07:04:00;;;;;;;4.55;2.13;;;;;;;10.70;63.50;93156.19;2071487;69;20648;-77
2024/03/21 07:06:27;;;;;;;4.30;1.48;;;;;;;10.74;62.87;93161.34;2068118;69;20140;-79
2024/03/21 07:08:54;;;;;;;2.67;1.35;;;;;;;10.52;60.63;93118.34;2071439;69;20146;-79
2024/03/21 07:11:19;;;;;;;1.63;1.30;;;;;;;10.87;59.26;93144.66;2068086;69;20147;-78
2024/03/21 07:13:45;;;;;;;2.20;1.40;;;;;;;10.92;58.18;93148.50;2068240;69;20460;-79
2024/03/21 07:16:18;;;;;;;4.18;1.40;;;;;;;11.00;58.41;93149.03;2071346;69;20209;-79
2024/03/21 07:18:44;;;;;;;3.97;1.40;;;;;;;11.03;57.09;93133.72;2068162;69;20543;-79
2024/03/21 07:21:10;;;;;;;2.15;1.40;;;;;;;11.10;57.36;93157.41;2071399;69;20581;-79
2024/03/21 07:23:35;;;;;;;2.15;1.45;;;;;;;11.32;56.98;93144.78;2071416;69;20148;-79
2024/03/21 07:26:03;;;;;;;3.10;1.50;;;;;;;11.60;55.40;93151.53;2071307;69;20515;-77
2024/03/21 07:28:28;;;;;;;3.05;1.38;;;;;;;11.48;56.58;93153.56;2071372;69;20231;-78
2024/03/21 07:30:55;;;;;;;2.55;1.65;;;;;;;11.74;55.84;93153.78;2068080;69;20175;-84
2024/03/21 07:33:21;;;;;;;1.55;1.23;;;;;;;11.94;55.43;93166.38;2071328;69;20152;-81
2024/03/21 07:35:57;;;;;;;2.13;1.20;;;;;;;12.06;53.54;93164.31;2067988;69;20145;-79
2024/03/21 07:38:23;;;;;;;3.22;1.65;;;;;;;12.24;52.71;93166.81;2071448;69;20132;-82
2024/03/21 07:40:56;;;;;;;4.70;1.83;;;;;;;12.17;55.30;93166.41;2071401;69;20144;-81
2024/03/21 07:43:24;;;;;;;4.28;2.10;;;;;;;12.42;53.85;93170.75;2071153;69;20594;-81
2024/03/21 07:45:50;;;;;;;2.75;1.80;;;;;;;12.05;52.33;93157.19;2071275;69;20140;-82
2024/03/21 07:48:17;;;;;;;1.90;1.20;;;;;;;12.11;51.17;93168.84;2071271;69;20670;-81
2024/03/21 07:50:44;;;;;;;3.83;1.40;;;;;;;12.19;51.23;93174.28;2071398;69;20240;-82
2024/03/21 07:53:11;;;;;;;4.55;1.67;;;;;;;12.24;50.91;93172.44;2071547;69;20145;-83
2024/03/21 07:55:36;;;;;;;4.07;2.35;;;;;;;11.62;54.36;93168.56;2071271;69;20148;-82
2024/03/21 07:58:06;;;;;;;5.20;2.30;;;;;;;12.43;55.15;93178.59;2071390;69;20160;-80
2024/03/21 08:00:33;;;;;;;3.53;2.40;;;;;;;12.73;55.32;93179.69;2071442;69;20692;-78
2024/03/21 08:02:59;;;;;;;3.42;2.15;;;;;;;12.80;54.37;93183.66;2065143;69;20231;-78
2024/03/21 08:05:25;;;;;;;5.55;2.33;;;;;;;12.77;53.69;93182.03;2067934;69;20243;-78
2024/03/21 08:07:50;;;;;;;3.53;2.30;;;;;;;12.72;54.29;93180.31;2071316;69;20149;-78
2024/03/21 08:10:16;;;;;;;3.40;2.40;;;;;;;12.68;54.44;93192.09;2071424;69;20578;-77
2024/03/21 08:12:41;;;;;;;5.00;2.90;;;;;;;12.28;57.48;93187.56;2071340;69;20148;-78
2024/03/21 08:15:09;;;;;;;4.68;3.10;;;;;;;12.47;57.60;93189.41;2071496;69;20592;-79
2024/03/21 08:17:36;;;;;;;5.57;3.00;;;;;;;12.83;56.11;93190.91;2067948;69;20140;-79
2024/03/21 08:20:03;;;;;;;4.47;2.75;;;;;;;13.03;54.92;93182.88;2071411;69;20136;-79
2024/03/21 08:22:28;;;;;;;5.13;2.75;;;;;;;13.23;55.13;93184.09;2071463;69;20215;-78
2024/03/21 08:28:41;;;;;;;7.30;3.70;;;;;;;13.29;56.85;93183.00;2071208;69;20194;-78
2024/03/21 08:31:06;;;;;;;12.75;3.30;;;;;;;13.22;56.38;93182.63;2071224;69;20156;-78
2024/03/21 08:33:32;;;;;;;6.00;3.25;;;;;;;13.45;55.54;93192.41;2071248;69;20616;-78
2024/03/21 08:35:57;;;;;;;5.53;2.92;;;;;;;13.57;54.86;93186.75;2071366;69;20550;-79
2024/03/21 08:38:23;;;;;;;6.22;3.25;;;;;;;13.62;54.30;93183.50;2071482;69;20682;-78
2024/03/21 08:44:36;;;;;;;3.92;2.20;;;;;;;13.63;54.72;93196.31;2071839;69;20194;-79
2024/03/21 08:47:02;;;;;;;3.47;2.30;;;;;;;13.69;54.50;93193.06;2071786;69;20167;-78
2024/03/21 08:49:28;;;;;;;5.20;3.03;;;;;;;13.03;55.10;93193.47;2068401;69;20583;-77
2024/03/21 08:51:54;;;;;;;5.60;3.67;;;;;;;12.82;57.42;93197.16;2071861;69;20132;-77
2024/03/21 08:54:20;;;;;;;8.52;6.22;;;;;;;12.34;59.59;93199.22;2071937;69;20144;-78
2024/03/21 08:56:46;;;;;;;8.80;4.90;;;;;;;12.82;58.24;93212.00;2071937;69;20148;-78
2024/03/21 08:59:11;;;;;;;7.82;4.07;;;;;;;12.90;57.80;93206.84;2071762;69;20140;-77
2024/03/21 09:01:37;;;;;;;7.55;3.00;;;;;;;12.92;56.86;93217.53;2071345;69;20227;-77
2024/03/21 09:04:03;;;;;;;5.35;3.05;;;;;;;13.10;56.48;93220.72;2068575;69;20151;-78
2024/03/21 09:06:30;;;;;;;5.88;2.83;;;;;;;13.04;56.54;93223.94;2071831;69;20135;-77
2024/03/21 09:08:57;;;;;;;4.88;3.10;;;;;;;13.09;56.68;93220.00;2071772;69;20152;-77
2024/03/21 09:11:22;;;;;;;6.82;3.15;;;;;;;13.33;56.74;93217.91;2071966;69;20515;-77
2024/03/21 09:13:48;;;;;;;7.13;3.10;;;;;;;13.52;56.81;93230.28;2071633;69;20152;-78
2024/03/21 09:16:14;;;;;;;5.38;3.30;;;;;;;13.61;55.87;93232.25;2071651;69;20182;-75
2024/03/21 09:18:43;;;;;;;7.85;4.35;;;;;;;13.27;57.63;93234.50;2071554;69;20180;-76
2024/03/21 09:21:12;;;;;;;5.97;3.67;;;;;;;13.30;57.21;93224.78;2068456;69;20527;-77
2024/03/21 09:23:39;;;;;;;6.22;3.45;;;;;;;13.16;57.97;93238.78;2071859;69;20143;-77
2024/03/21 09:26:04;;;;;;;9.00;3.60;;;;;;;13.30;57.74;93238.94;2071815;69;20160;-76
2024/03/21 09:28:30;;;;;;;4.38;2.83;;;;;;;13.55;55.43;93235.44;2071700;69;20147;-76
2024/03/21 09:30:56;;;;;;;5.10;2.90;;;;;;;13.55;60.61;93246.00;2068453;69;20174;-77
2024/03/21 09:33:22;;;;;;;5.45;2.92;;;;;;;13.34;63.76;93252.56;2071743;69;20235;-76
2024/03/21 09:36:01;;;;;;;6.50;2.90;;;;;;;13.62;60.99;93242.94;2071717;69;20591;-76
2024/03/21 09:38:26;;;;;;;5.55;3.05;;;;;;;13.64;62.16;93264.94;2072134;69;20148;-78
2024/03/21 09:40:52;;;;;;;5.07;3.05;;;;;;;13.71;62.69;93258.28;2068391;69;20197;-77
2024/03/21 09:43:18;;;;;;;7.00;3.15;;;;;;;13.86;61.04;93257.75;2071729;69;20604;-78
2024/03/21 09:45:45;;;;;;;5.90;3.00;;;;;;;13.64;62.83;93230.97;2071770;69;20264;-79
2024/03/21 09:48:11;;;;;;;6.28;3.10;;;;;;;13.99;62.18;93268.41;2071749;69;20148;-78
2024/03/21 09:50:41;;;;;;;4.85;2.58;;;;;;;14.02;62.92;93263.59;2071666;69;20141;-78
2024/03/21 09:53:16;;;;;;;5.40;2.50;;;;;;;13.99;63.13;93262.00;2071647;69;20153;-78
2024/03/21 09:55:48;;;;;;;4.43;2.30;;;;;;;13.88;63.82;93263.53;2068440;69;20245;-77
2024/03/21 09:58:16;;;;;;;3.95;2.53;;;;;;;14.01;63.68;93272.69;2071513;69;20152;-78
2024/03/21 10:00:43;;;;;;;4.43;2.35;;;;;;;13.87;63.46;93270.53;2071800;69;20148;-76
2024/03/21 10:03:14;;;;;;;6.47;2.20;;;;;;;14.04;64.40;93279.97;2071510;69;20158;-77
2024/03/21 10:05:46;;;;;;;3.05;2.30;;;;;;;14.16;65.28;93280.66;2071692;69;20132;-77
2024/03/21 10:08:15;;;;;;;4.05;2.47;;;;;;;14.15;64.91;93274.25;2068336;69;20188;-77
2024/03/21 10:10:43;;;;;;;3.75;2.33;;;;;;;14.08;65.49;93283.03;2071718;69;20605;-77
2024/03/21 10:13:09;;;;;;;5.03;2.42;;;;;;;14.11;65.36;93285.34;2071762;69;20148;-78
2024/03/21 10:15:36;;;;;;;8.23;2.90;;;;;;;14.24;66.34;93286.75;2071698;69;20176;-77
2024/03/21 10:18:06;;;;;;;5.97;2.70;;;;;;;14.47;64.50;93292.31;2071617;69;20151;-76
2024/03/21 10:20:33;;;;;;;7.65;2.83;;;;;;;14.48;64.36;93276.84;2071871;69;20209;-77
2024/03/21 10:22:59;;;;;;;4.85;3.08;;;;;;;14.32;64.21;93287.22;2071796;69;20250;-78
2024/03/21 10:25:25;;;;;;;6.30;3.50;;;;;;;14.47;61.65;93272.50;2068355;69;20175;-78
2024/03/21 10:27:52;;;;;;;5.93;3.00;;;;;;;14.63;63.45;93281.19;2071810;69;20185;-77
2024/03/21 10:30:19;;;;;;;5.03;2.90;;;;;;;14.62;63.40;93276.88;2068447;69;20132;-78
2024/03/21 10:32:46;;;;;;;4.75;3.00;;;;;;;14.85;63.23;93276.00;2065193;69;20152;-77
2024/03/21 10:35:16;;;;;;;9.63;5.40;;;;;;;14.07;62.96;93270.22;2071679;69;20631;-77
2024/03/21 10:37:44;;;;;;;7.57;4.50;;;;;;;14.18;63.04;93258.13;2071771;69;20227;-77
2024/03/21 10:40:16;;;;;;;10.70;6.47;;;;;;;14.86;61.00;93271.81;2071688;69;20150;-78
2024/03/21 10:42:52;;;;;;;12.88;9.20;;;;;;;14.78;61.44;93264.97;2071788;69;20239;-78
2024/03/21 10:45:19;;;;;;;7.88;4.82;;;;;;;14.73;61.10;93267.56;2068263;69;20156;-78
2024/03/21 10:47:49;;;;;;;6.53;3.80;;;;;;;15.19;58.98;93267.88;2071419;69;20183;-78
2024/03/21 10:50:22;;;;;;;5.80;3.80;;;;;;;14.90;60.84;93257.13;2071676;69;20750;-78
2024/03/21 10:52:52;;;;;;;4.97;3.30;;;;;;;15.18;61.58;93269.97;2071581;69;20139;-78
2024/03/21 10:55:21;;;;;;;5.95;4.00;;;;;;;15.50;59.29;93264.50;2068296;69;20657;-78
2024/03/21 11:01:38;;;;;;;7.53;5.32;;;;;;;15.58;60.24;93247.91;2071451;69;20132;-75
2024/03/21 11:04:05;;;;;;;7.50;3.50;;;;;;;15.83;59.76;93243.47;2071546;69;20236;-74
2024/03/21 11:06:34;;;;;;;11.38;7.30;;;;;;;15.52;60.75;93239.81;2071496;69;20152;-74
2024/03/21 11:09:02;;;;;;;5.30;3.83;;;;;;;15.27;61.25;93222.19;2071545;69;20144;-76
2024/03/21 11:11:29;;;;;;;4.80;3.15;;;;;;;15.40;61.84;93232.78;2071578;69;20163;-75
2024/03/21 11:14:00;;;;;;;4.03;3.35;;;;;;;15.78;59.93;93233.31;2071635;69;20225;-77
2024/03/21 11:16:26;;;;;;;3.72;2.85;;;;;;;16.01;60.30;93227.34;2071691;69;20240;-79
2024/03/21 11:18:54;;;;;;;4.53;2.63;;;;;;;16.09;59.99;93229.88;2071515;69;20589;-80
2024/03/21 11:21:19;;;;;;;4.32;2.10;;;;;;;16.44;58.81;93218.03;2071521;69;20171;-74
2024/03/21 11:23:46;;;;;;;2.60;2.30;;;;;;;17.00;56.80;93231.34;2071545;69;20209;-79
2024/03/21 11:26:18;;;;;;;4.13;2.17;;;;;;;17.85;55.11;93232.91;2071560;69;20178;-78
2024/03/21 11:32:31;;;;;;;3.63;1.70;;;;;;;15.94;56.46;93239.75;2071387;69;20120;-79
2024/03/21 11:34:57;;;;;;;2.72;1.63;;;;;;;16.22;56.90;93237.59;2071462;69;20140;-82
2024/03/21 11:37:23;;;;;;;1.80;1.40;;;;;;;17.16;55.22;93239.13;2071520;69;20172;-80
2024/03/21 11:39:50;;;;;;;4.63;2.10;;;;;;;16.25;56.90;93236.31;2071499;69;20217;-79
2024/03/21 11:42:19;;;;;;;2.95;1.70;;;;;;;16.49;56.43;93234.66;2071469;69;20136;-82
2024/03/21 11:44:46;;;;;;;2.50;2.10;;;;;;;16.06;57.52;93239.66;2071383;69;20237;-77
2024/03/21 11:47:15;;;;;;;3.08;2.10;;;;;;;16.95;56.31;93229.69;2071394;69;20233;-78
2024/03/21 11:49:41;;;;;;;4.05;2.42;;;;;;;17.22;56.92;93239.41;2071455;69;20572;-77
2024/03/21 11:52:15;;;;;;;3.10;2.10;;;;;;;17.42;56.37;93220.41;2071382;69;20231;-79
2024/03/21 11:54:45;;;;;;;3.67;2.03;;;;;;;15.80;58.11;93216.34;2071601;69;20615;-81
2024/03/21 11:57:13;;;;;;;1.48;1.20;;;;;;;16.02;55.97;93215.34;2071450;69;20173;-80
2024/03/21 11:59:41;;;;;;;2.28;1.40;;;;;;;16.53;54.60;93222.72;2068060;69;20144;-80
2024/03/21 12:02:14;;;;;;;1.55;1.30;;;;;;;16.18;55.49;93215.41;2071177;69;20183;-78
2024/03/21 12:04:44;;;;;;;2.30;1.20;;;;;;;15.89;56.19;93213.28;2071254;69;20120;-78
2024/03/21 12:07:14;;;;;;;3.05;1.20;;;;;;;16.06;56.86;93225.44;2071252;69;20128;-77
2024/03/21 12:09:39;;;;;;;1.50;1.40;;;;;;;16.38;57.20;93215.63;2071340;69;20274;-79
2024/03/21 12:12:08;;;;;;;2.78;1.70;;;;;;;16.63;55.50;93216.78;2067977;69;20157;-78
2024/03/21 12:14:34;;;;;;;3.10;1.50;;;;;;;16.16;56.85;93225.94;2071727;69;20144;-77
2024/03/21 12:17:00;;;;;;;1.98;1.33;;;;;;;15.83;57.59;93230.03;2071849;69;20171;-77
2024/03/21 12:19:25;;;;;;;3.42;1.40;;;;;;;16.42;56.39;93232.88;2071649;69;20152;-76
2024/03/21 12:21:51;;;;;;;2.35;1.40;;;;;;;15.93;57.02;93222.00;2068527;69;20584;-78
2024/03/21 12:24:18;;;;;;;1.63;1.30;;;;;;;19.45;51.81;93212.81;2071807;69;20141;-78
2024/03/21 12:26:43;;;;;;;1.83;1.33;;;;;;;25.07;41.10;93207.81;2071623;69;20164;-78
2024/03/21 12:29:09;;;;;;;1.50;1.10;;;;;;;19.71;47.54;93193.06;2068483;69;20148;-77